createdAt,value
2022-09-28T00:00:03.250Z,15.78
2022-09-28T00:02:41.934Z,15.64
2022-09-28T00:05:14.940Z,15.85
2022-09-28T00:07:44.974Z,16.08
2022-09-28T00:10:14.655Z,16.09
2022-09-28T00:12:44.246Z,15.91
2022-09-28T00:15:13.874Z,15.91
2022-09-28T00:17:46.069Z,15.66
2022-09-28T00:20:17.985Z,15.53
2022-09-28T00:22:48.209Z,15.43
2022-09-28T00:25:18.135Z,15.36
2022-09-28T00:27:52.529Z,15.22
2022-09-28T00:30:23.648Z,15.09
2022-09-28T00:32:54.542Z,14.95
2022-09-28T00:35:24.785Z,14.84
2022-09-28T00:37:55.380Z,14.69
2022-09-28T00:40:25.148Z,14.65
2022-09-28T00:42:54.975Z,14.64
2022-09-28T00:45:27.489Z,14.67
2022-09-28T00:48:01.440Z,14.71
2022-09-28T00:50:35.418Z,14.78
2022-09-28T00:53:22.965Z,14.85
2022-09-28T00:55:58.961Z,14.93
2022-09-28T00:58:33.336Z,14.96
2022-09-28T01:01:03.748Z,15.00
2022-09-28T01:03:34.936Z,15.02
2022-09-28T01:06:08.988Z,15.08
2022-09-28T01:08:41.220Z,15.15
2022-09-28T01:11:11.159Z,15.26
2022-09-28T01:13:42.786Z,15.49
2022-09-28T01:16:31.040Z,15.57
2022-09-28T01:19:47.760Z,15.63
2022-09-28T01:22:36.089Z,15.66
2022-09-28T01:25:14.717Z,15.64
2022-09-28T01:28:06.876Z,15.58
2022-09-28T01:30:59.150Z,15.50
2022-09-28T01:33:50.305Z,15.44
2022-09-28T01:36:27.628Z,15.42
2022-09-28T01:39:03.401Z,15.39
2022-09-28T01:41:37.828Z,15.36
2022-09-28T01:44:13.054Z,15.44
2022-09-28T01:46:46.880Z,15.49
2022-09-28T01:49:32.561Z,15.51
2022-09-28T01:52:09.616Z,15.47
2022-09-28T01:54:59.582Z,15.44
2022-09-28T01:57:40.629Z,15.49
2022-09-28T02:00:14.854Z,15.53
2022-09-28T02:03:10.470Z,15.51
2022-09-28T02:06:02.288Z,15.56
2022-09-28T02:08:41.723Z,15.53
2022-09-28T02:11:23.292Z,15.54
2022-09-28T02:14:02.771Z,15.50
2022-09-28T02:16:42.222Z,15.47
2022-09-28T02:19:25.150Z,15.46
2022-09-28T02:22:44.147Z,15.53
2022-09-28T02:25:46.773Z,15.54
2022-09-28T02:28:17.966Z,15.56
2022-09-28T02:30:48.172Z,15.51
2022-09-28T02:33:20.713Z,15.50
2022-09-28T02:35:51.032Z,15.47
2022-09-28T02:38:22.477Z,15.43
2022-09-28T02:41:10.695Z,15.36
2022-09-28T02:44:00.144Z,15.36
2022-09-28T02:47:06.167Z,15.25
2022-09-28T02:49:47.715Z,15.19
2022-09-28T02:52:21.307Z,15.12
2022-09-28T02:55:12.227Z,15.12
2022-09-28T02:57:59.473Z,15.08
2022-09-28T03:00:32.603Z,15.08
2022-09-28T03:03:36.345Z,15.06
2022-09-28T03:06:12.775Z,15.02
2022-09-28T03:09:15.056Z,14.95
2022-09-28T03:11:50.108Z,14.91
2022-09-28T03:14:20.820Z,14.88
2022-09-28T03:16:59.372Z,14.93
2022-09-28T03:19:38.252Z,14.98
2022-09-28T03:22:09.144Z,15.03
2022-09-28T03:24:39.287Z,14.98
2022-09-28T03:27:11.285Z,14.96
2022-09-28T03:29:41.869Z,14.99
2022-09-28T03:32:11.807Z,14.95
2022-09-28T03:34:41.811Z,14.95
2022-09-28T03:37:12.154Z,14.88
2022-09-28T03:39:42.578Z,14.89
2022-09-28T03:42:12.281Z,14.89
2022-09-28T03:44:46.581Z,14.88
2022-09-28T03:47:19.028Z,14.85
2022-09-28T03:49:49.711Z,14.84
2022-09-28T03:52:19.594Z,14.72
2022-09-28T03:54:49.768Z,14.67
2022-09-28T03:57:19.603Z,14.68
2022-09-28T03:59:49.390Z,14.72
2022-09-28T04:02:19.094Z,14.72
2022-09-28T04:04:48.848Z,14.71
2022-09-28T04:07:18.573Z,14.74
2022-09-28T04:09:48.823Z,14.71
2022-09-28T04:12:18.518Z,14.72
2022-09-28T04:14:48.460Z,14.68
2022-09-28T04:17:18.233Z,14.71
2022-09-28T04:19:48.726Z,14.67
2022-09-28T04:22:28.095Z,14.67
2022-09-28T04:24:59.090Z,14.65
2022-09-28T04:27:46.784Z,14.64
2022-09-28T04:30:17.717Z,14.63
2022-09-28T04:32:49.005Z,14.58
2022-09-28T04:35:20.130Z,14.54
2022-09-28T04:37:50.145Z,14.52
2022-09-28T04:40:19.991Z,14.48
2022-09-28T04:42:57.364Z,14.54
2022-09-28T04:45:28.616Z,14.60
2022-09-28T04:48:09.003Z,14.63
2022-09-28T04:51:11.273Z,14.63
2022-09-28T04:53:41.329Z,14.63
2022-09-28T04:56:15.854Z,14.65
2022-09-28T04:58:51.774Z,14.71
2022-09-28T05:01:25.273Z,14.68
2022-09-28T05:04:04.663Z,14.72
2022-09-28T05:06:45.132Z,14.82
2022-09-28T05:09:15.829Z,14.87
2022-09-28T05:11:45.956Z,14.81
2022-09-28T05:14:20.927Z,14.82
2022-09-28T05:16:52.195Z,14.84
2022-09-28T05:19:25.049Z,14.85
2022-09-28T05:21:59.158Z,14.79
2022-09-28T05:24:29.207Z,14.82
2022-09-28T05:26:58.985Z,14.87
2022-09-28T05:29:32.061Z,14.91
2022-09-28T05:32:20.864Z,14.92
2022-09-28T05:35:13.962Z,14.88
2022-09-28T05:37:48.646Z,14.82
2022-09-28T05:40:19.009Z,14.78
2022-09-28T05:42:54.295Z,14.77
2022-09-28T05:45:24.432Z,14.75
2022-09-28T05:47:55.048Z,14.74
2022-09-28T05:50:25.884Z,14.67
2022-09-28T05:53:04.870Z,14.67
2022-09-28T05:55:35.473Z,14.64
2022-09-28T05:58:07.879Z,14.65
2022-09-28T06:00:38.125Z,14.65
2022-09-28T06:03:11.826Z,14.63
2022-09-28T06:05:42.450Z,14.63
2022-09-28T06:08:12.714Z,14.60
2022-09-28T06:10:46.951Z,14.57
2022-09-28T06:13:17.556Z,14.56
2022-09-28T06:15:47.825Z,14.54
2022-09-28T06:18:17.862Z,14.54
2022-09-28T06:21:25.865Z,14.52
2022-09-28T06:23:57.395Z,14.56
2022-09-28T06:26:28.145Z,14.56
2022-09-28T06:28:58.734Z,14.52
2022-09-28T06:31:31.241Z,14.51
2022-09-28T06:34:03.179Z,14.57
2022-09-28T06:36:33.303Z,14.54
2022-09-28T06:39:03.295Z,14.52
2022-09-28T06:41:33.378Z,14.48
2022-09-28T06:44:14.055Z,14.45
2022-09-28T06:47:03.377Z,14.44
2022-09-28T06:49:56.372Z,14.41
2022-09-28T06:52:44.363Z,14.34
2022-09-28T06:55:35.593Z,14.31
2022-09-28T06:58:08.333Z,14.37
2022-09-28T07:00:40.328Z,14.42
2022-09-28T07:03:14.557Z,14.47
2022-09-28T07:06:07.387Z,14.47
2022-09-28T07:09:10.021Z,14.48
2022-09-28T07:12:05.947Z,14.47
2022-09-28T07:14:51.234Z,14.47
2022-09-28T07:17:21.626Z,14.44
2022-09-28T07:19:53.774Z,14.41
2022-09-28T07:22:39.485Z,14.38
2022-09-28T07:25:11.609Z,14.30
2022-09-28T07:27:40.789Z,14.26
2022-09-28T07:30:34.698Z,14.09
2022-09-28T07:33:10.831Z,13.95
2022-09-28T07:35:57.910Z,13.80
2022-09-28T07:38:31.997Z,13.73
2022-09-28T07:41:15.218Z,13.80
2022-09-28T07:43:50.964Z,13.78
2022-09-28T07:46:22.353Z,13.76
2022-09-28T07:49:02.470Z,13.72
2022-09-28T07:51:57.757Z,13.69
2022-09-28T07:54:32.309Z,13.65
2022-09-28T07:57:41.214Z,13.75
2022-09-28T08:00:25.141Z,13.73
2022-09-28T08:02:55.854Z,13.75
2022-09-28T08:05:27.292Z,13.73
2022-09-28T08:07:59.926Z,13.69
2022-09-28T08:10:31.254Z,13.62
2022-09-28T08:13:23.465Z,13.57
2022-09-28T08:16:14.257Z,13.57
2022-09-28T08:18:55.765Z,13.57
2022-09-28T08:21:44.162Z,13.57
2022-09-28T08:24:16.617Z,13.63
2022-09-28T08:26:48.264Z,13.72
2022-09-28T08:29:20.122Z,13.78
2022-09-28T08:31:52.936Z,13.93
2022-09-28T08:34:43.188Z,13.99
2022-09-28T08:37:26.175Z,14.06
2022-09-28T08:40:15.084Z,14.12
2022-09-28T08:43:01.726Z,14.13
2022-09-28T08:45:50.164Z,14.21
2022-09-28T08:49:20.980Z,14.16
2022-09-28T08:52:20.236Z,14.00
2022-09-28T08:55:28.330Z,13.87
2022-09-28T08:58:38.143Z,13.73
2022-09-28T09:01:12.840Z,13.55
2022-09-28T09:03:43.742Z,13.51
2022-09-28T09:06:35.498Z,13.40
2022-09-28T09:09:41.396Z,13.27
2022-09-28T09:12:41.297Z,13.17
2022-09-28T09:15:29.573Z,13.17
2022-09-28T09:18:31.499Z,13.11
2022-09-28T09:21:20.527Z,13.10
2022-09-28T09:23:50.417Z,13.07
2022-09-28T09:26:25.969Z,13.11
2022-09-28T09:29:08.017Z,13.17
2022-09-28T09:32:04.198Z,13.30
2022-09-28T09:35:07.999Z,13.40
2022-09-28T09:38:12.580Z,13.51
2022-09-28T09:41:33.755Z,13.72
2022-09-28T09:44:47.214Z,13.85
2022-09-28T09:47:48.332Z,14.00
2022-09-28T09:51:03.679Z,14.10
2022-09-28T09:53:37.668Z,14.23
2022-09-28T09:56:25.276Z,14.47
2022-09-28T09:59:16.727Z,14.68
2022-09-28T10:02:33.073Z,14.91
2022-09-28T10:05:13.158Z,15.08
2022-09-28T10:07:56.172Z,15.23
2022-09-28T10:10:32.892Z,15.16
2022-09-28T10:13:11.320Z,15.22
2022-09-28T10:15:43.611Z,15.35
2022-09-28T10:18:35.918Z,15.56
2022-09-28T10:21:25.080Z,15.60
2022-09-28T10:24:06.062Z,15.71
2022-09-28T10:26:49.664Z,15.98
2022-09-28T10:29:27.975Z,16.02
2022-09-28T10:31:59.208Z,15.91
2022-09-28T10:34:36.672Z,15.91
2022-09-28T10:37:15.417Z,15.83
2022-09-28T10:40:05.020Z,15.83
2022-09-28T10:42:37.571Z,15.76
2022-09-28T10:45:22.037Z,15.85
2022-09-28T10:47:52.323Z,15.88
2022-09-28T10:50:28.497Z,15.95
2022-09-28T10:53:27.481Z,16.11
2022-09-28T10:56:28.361Z,16.35
2022-09-28T10:59:25.001Z,16.44
2022-09-28T11:02:14.587Z,16.65
2022-09-28T11:04:46.196Z,16.87
2022-09-28T11:07:21.737Z,17.92
2022-09-28T11:09:53.986Z,18.17
2022-09-28T11:12:30.624Z,18.36
2022-09-28T11:15:04.616Z,18.14
2022-09-28T11:17:41.058Z,17.92
2022-09-28T11:20:27.060Z,18.40
2022-09-28T11:23:22.008Z,17.90
2022-09-28T11:26:07.095Z,17.58
2022-09-28T11:28:43.369Z,17.48
2022-09-28T11:31:30.427Z,17.87
2022-09-28T11:34:31.435Z,18.13
2022-09-28T11:38:11.485Z,20.40
2022-09-28T11:41:10.534Z,20.55
2022-09-28T11:43:55.315Z,19.58
2022-09-28T11:46:53.517Z,18.87
2022-09-28T11:49:33.299Z,19.02
2022-09-28T11:52:12.958Z,19.19
2022-09-28T11:54:49.638Z,20.18
2022-09-28T11:57:29.169Z,22.31
2022-09-28T12:00:15.046Z,22.23
2022-09-28T12:02:59.933Z,20.74
2022-09-28T12:05:35.463Z,21.31
2022-09-28T12:08:15.972Z,22.39
2022-09-28T12:11:23.982Z,20.93
2022-09-28T12:14:23.149Z,20.29
2022-09-28T12:17:06.971Z,20.01
2022-09-28T12:19:52.362Z,20.30
2022-09-28T12:22:55.486Z,21.27
2022-09-28T12:25:27.215Z,21.07
2022-09-28T12:28:03.960Z,22.14
2022-09-28T12:30:41.705Z,22.27
2022-09-28T12:33:18.809Z,22.88
2022-09-28T12:36:03.856Z,22.88
2022-09-28T12:39:23.969Z,22.23
2022-09-28T12:41:57.582Z,20.98
2022-09-28T12:44:45.757Z,19.74
2022-09-28T12:47:44.098Z,19.33
2022-09-28T12:50:41.064Z,20.70
2022-09-28T12:53:42.507Z,22.67
2022-09-28T12:56:33.493Z,23.06
2022-09-28T12:59:33.466Z,23.09
2022-09-28T13:02:24.188Z,23.96
2022-09-28T13:05:08.926Z,24.12
2022-09-28T13:07:58.812Z,24.29
2022-09-28T13:10:43.935Z,24.45
2022-09-28T13:13:16.496Z,25.08
2022-09-28T13:16:24.475Z,24.09
2022-09-28T13:19:05.327Z,22.47
2022-09-28T13:21:54.168Z,20.81
2022-09-28T13:24:34.111Z,20.39
2022-09-28T13:27:17.570Z,20.45
2022-09-28T13:29:51.455Z,20.46
2022-09-28T13:32:21.927Z,20.46
2022-09-28T13:34:52.134Z,20.60
2022-09-28T13:37:27.862Z,21.21
2022-09-28T13:40:07.138Z,21.27
2022-09-28T13:42:41.367Z,21.24
2022-09-28T13:45:22.576Z,22.51
2022-09-28T13:48:01.463Z,22.47
2022-09-28T13:50:52.055Z,22.16
2022-09-28T13:53:52.487Z,21.54
2022-09-28T13:56:59.087Z,21.25
2022-09-28T13:59:31.744Z,21.05
2022-09-28T14:02:34.983Z,20.49
2022-09-28T14:05:28.407Z,20.25
2022-09-28T14:08:10.352Z,20.14
2022-09-28T14:10:59.300Z,20.74
2022-09-28T14:13:44.594Z,21.14
2022-09-28T14:16:21.709Z,21.58
2022-09-28T14:19:21.955Z,21.78
2022-09-28T14:22:25.828Z,22.21
2022-09-28T14:25:22.916Z,22.47
2022-09-28T14:28:10.758Z,22.68
2022-09-28T14:30:43.855Z,22.87
2022-09-28T14:33:18.939Z,23.06
2022-09-28T14:36:03.127Z,23.05
2022-09-28T14:39:06.541Z,22.92
2022-09-28T14:41:43.043Z,22.82
2022-09-28T14:44:20.282Z,22.57
2022-09-28T14:46:50.315Z,22.37
2022-09-28T14:49:24.326Z,22.79
2022-09-28T14:51:59.944Z,22.85
2022-09-28T14:54:53.014Z,22.41
2022-09-28T14:57:29.706Z,22.13
2022-09-28T15:00:01.097Z,22.03
2022-09-28T15:02:39.530Z,21.85
2022-09-28T15:05:25.420Z,22.03
2022-09-28T15:07:56.337Z,22.03
2022-09-28T15:10:33.950Z,22.10
2022-09-28T15:13:07.246Z,22.41
2022-09-28T15:15:44.309Z,23.74
2022-09-28T15:18:43.960Z,24.88
2022-09-28T15:21:15.044Z,22.78
2022-09-28T15:23:46.509Z,21.83
2022-09-28T15:26:28.744Z,22.78
2022-09-28T15:28:59.733Z,24.30
2022-09-28T15:31:32.509Z,23.12
2022-09-28T15:34:20.697Z,22.75
2022-09-28T15:36:51.113Z,22.13
2022-09-28T15:39:35.183Z,21.65
2022-09-28T15:42:07.208Z,21.54
2022-09-28T15:44:39.272Z,21.20
2022-09-28T15:47:17.852Z,20.86
2022-09-28T15:50:28.216Z,20.91
2022-09-28T15:53:01.125Z,20.79
2022-09-28T15:55:34.602Z,20.80
2022-09-28T15:58:16.846Z,20.90
2022-09-28T16:00:49.210Z,20.93
2022-09-28T16:03:19.353Z,20.80
2022-09-28T16:06:10.275Z,20.38
2022-09-28T16:08:45.999Z,20.42
2022-09-28T16:11:27.285Z,20.97
2022-09-28T16:14:08.384Z,21.44
2022-09-28T16:16:48.983Z,21.65
2022-09-28T16:19:34.055Z,21.69
2022-09-28T16:22:09.664Z,21.69
2022-09-28T16:24:43.144Z,21.89
2022-09-28T16:27:42.038Z,22.41
2022-09-28T16:30:18.456Z,22.61
2022-09-28T16:33:04.468Z,22.76
2022-09-28T16:35:52.136Z,22.65
2022-09-28T16:38:22.563Z,23.18
2022-09-28T16:40:59.004Z,23.54
2022-09-28T16:43:32.034Z,23.70
2022-09-28T16:46:10.334Z,23.42
2022-09-28T16:48:49.638Z,22.67
2022-09-28T16:51:21.609Z,22.07
2022-09-28T16:54:09.911Z,21.86
2022-09-28T16:56:40.036Z,22.18
2022-09-28T16:59:13.846Z,22.75
2022-09-28T17:01:44.813Z,23.82
2022-09-28T17:04:14.566Z,24.19
2022-09-28T17:06:44.721Z,24.39
2022-09-28T17:09:14.496Z,23.82
2022-09-28T17:11:44.537Z,23.39
2022-09-28T17:14:15.097Z,23.09
2022-09-28T17:17:07.460Z,22.62
2022-09-28T17:19:37.405Z,22.33
2022-09-28T17:22:09.074Z,22.18
2022-09-28T17:24:39.513Z,22.39
2022-09-28T17:27:13.606Z,22.84
2022-09-28T17:29:43.664Z,23.68
2022-09-28T17:32:20.389Z,24.11
2022-09-28T17:35:00.722Z,23.80
2022-09-28T17:37:37.347Z,23.98
2022-09-28T17:40:33.663Z,24.45
2022-09-28T17:43:06.803Z,24.33
2022-09-28T17:45:42.119Z,24.25
2022-09-28T17:48:19.303Z,24.57
2022-09-28T17:50:49.405Z,24.19
2022-09-28T17:53:19.777Z,24.26
2022-09-28T17:55:49.459Z,24.00
2022-09-28T17:58:22.202Z,23.50
2022-09-28T18:00:53.739Z,23.34
2022-09-28T18:03:25.503Z,23.31
2022-09-28T18:06:10.429Z,23.08
2022-09-28T18:08:40.752Z,23.08
2022-09-28T18:11:10.925Z,22.87
2022-09-28T18:13:40.843Z,23.10
2022-09-28T18:16:11.731Z,23.60
2022-09-28T18:18:42.152Z,23.68
2022-09-28T18:21:11.937Z,23.80
2022-09-28T18:23:41.749Z,23.88
2022-09-28T18:26:15.831Z,23.67
2022-09-28T18:28:45.839Z,23.74
2022-09-28T18:31:17.421Z,24.07
2022-09-28T18:36:37.279Z,23.03
2022-09-28T18:39:07.453Z,22.84
2022-09-28T18:41:37.333Z,22.67
2022-09-28T18:44:07.050Z,22.50
2022-09-28T18:46:37.636Z,22.02
2022-09-28T18:49:07.503Z,21.93
2022-09-28T18:51:37.284Z,21.62
2022-09-28T18:54:08.416Z,21.39
2022-09-28T18:56:39.180Z,21.30
2022-09-28T18:59:21.005Z,21.20
2022-09-28T19:01:51.190Z,20.84
2022-09-28T19:04:21.673Z,20.76
2022-09-28T19:06:53.393Z,20.67
2022-09-28T19:09:25.884Z,20.55
2022-09-28T19:11:56.008Z,20.60
2022-09-28T19:14:26.237Z,20.62
2022-09-28T19:16:56.443Z,20.55
2022-09-28T19:19:26.177Z,20.55
2022-09-28T19:21:55.907Z,20.55
2022-09-28T19:24:26.745Z,20.60
2022-09-28T19:26:56.461Z,20.94
2022-09-28T19:29:26.209Z,20.40
2022-09-28T19:31:57.834Z,20.04
2022-09-28T19:34:31.044Z,19.84
2022-09-28T19:37:05.069Z,19.91
2022-09-28T19:39:35.735Z,19.87
2022-09-28T19:42:05.563Z,19.82
2022-09-28T19:44:36.820Z,19.77
2022-09-28T19:47:11.121Z,19.88
2022-09-28T19:49:42.740Z,19.87
2022-09-28T19:52:17.745Z,19.34
2022-09-28T19:54:55.427Z,18.76
2022-09-28T19:57:28.792Z,18.34
2022-09-28T20:00:02.481Z,18.00
2022-09-28T20:02:37.028Z,17.68
2022-09-28T20:05:07.372Z,17.53
2022-09-28T20:07:37.916Z,17.51
2022-09-28T20:10:08.263Z,17.56
2022-09-28T20:12:38.254Z,17.55
2022-09-28T20:15:10.258Z,17.53
2022-09-28T20:17:40.433Z,17.45
2022-09-28T20:20:10.359Z,17.25
2022-09-28T20:22:40.024Z,17.04
2022-09-28T20:25:11.093Z,16.94
2022-09-28T20:27:41.171Z,16.87
2022-09-28T20:30:12.330Z,16.81
2022-09-28T20:32:45.058Z,16.73
2022-09-28T20:35:30.435Z,16.70
2022-09-28T20:38:10.185Z,16.80
2022-09-28T20:40:42.426Z,16.76
2022-09-28T20:43:12.517Z,16.72
2022-09-28T20:45:42.329Z,16.74
2022-09-28T20:48:11.997Z,16.70
2022-09-28T20:50:43.754Z,16.67
2022-09-28T20:53:13.819Z,16.63
2022-09-28T20:55:43.479Z,16.56
2022-09-28T20:58:13.130Z,16.52
2022-09-28T21:00:43.036Z,16.55
2022-09-28T21:03:13.225Z,16.56
2022-09-28T21:05:42.863Z,16.52
2022-09-28T21:08:12.858Z,16.53
2022-09-28T21:10:45.672Z,16.45
2022-09-28T21:13:15.862Z,16.46
2022-09-28T21:15:45.640Z,16.38
2022-09-28T21:18:15.572Z,16.28
2022-09-28T21:20:52.733Z,16.19
2022-09-28T21:23:24.884Z,16.21
2022-09-28T21:26:13.584Z,16.30
2022-09-28T21:28:45.829Z,16.32
2022-09-28T21:31:16.121Z,16.32
2022-09-28T21:33:45.880Z,16.30
2022-09-28T21:36:15.935Z,16.32
2022-09-28T21:38:45.856Z,16.29
2022-09-28T21:41:15.962Z,16.16
2022-09-28T21:43:47.116Z,16.18
2022-09-28T21:46:18.583Z,16.11
2022-09-28T21:48:52.501Z,16.02
2022-09-28T21:51:22.957Z,15.94
2022-09-28T21:53:52.689Z,15.88
2022-09-28T21:56:24.149Z,15.91
2022-09-28T21:58:54.885Z,15.88
2022-09-28T22:01:27.150Z,15.81
2022-09-28T22:03:58.472Z,15.91
2022-09-28T22:06:31.993Z,15.90
2022-09-28T22:09:02.604Z,15.78
2022-09-28T22:11:32.283Z,15.84
2022-09-28T22:14:01.914Z,15.78
2022-09-28T22:16:32.895Z,15.76
2022-09-28T22:19:03.167Z,15.83
2022-09-28T22:21:35.981Z,15.88
2022-09-28T22:24:08.555Z,15.88
2022-09-28T22:26:40.599Z,15.83
2022-09-28T22:29:11.086Z,15.76
2022-09-28T22:31:42.381Z,15.73
2022-09-28T22:34:12.547Z,15.64
2022-09-28T22:36:42.269Z,15.64
2022-09-28T22:39:12.240Z,15.61
2022-09-28T22:41:43.825Z,15.50
2022-09-28T22:44:14.062Z,15.51
2022-09-28T22:46:45.102Z,15.53
2022-09-28T22:49:15.558Z,15.44
2022-09-28T22:51:45.410Z,15.40
2022-09-28T22:54:18.314Z,15.36
2022-09-28T22:56:48.539Z,15.32
2022-09-28T22:59:17.791Z,15.32
2022-09-28T23:01:49.011Z,15.26
2022-09-28T23:04:18.869Z,15.26
2022-09-28T23:06:48.711Z,15.25
2022-09-28T23:09:18.148Z,15.25
2022-09-28T23:11:47.916Z,15.18
2022-09-28T23:14:17.876Z,15.16
2022-09-28T23:16:47.093Z,15.02
2022-09-28T23:19:16.775Z,15.05
2022-09-28T23:21:47.874Z,15.05
2022-09-28T23:24:18.338Z,15.08
2022-09-28T23:26:48.388Z,15.06
2022-09-28T23:29:20.252Z,15.08
2022-09-28T23:31:50.595Z,15.05
2022-09-28T23:34:21.206Z,14.95
2022-09-28T23:36:53.973Z,14.95
2022-09-28T23:39:23.825Z,14.95
2022-09-28T23:41:53.907Z,14.93
2022-09-28T23:44:23.716Z,14.91
2022-09-28T23:46:53.024Z,14.93
2022-09-28T23:49:22.961Z,14.85
2022-09-28T23:51:52.797Z,14.87
2022-09-28T23:54:22.512Z,14.85
2022-09-28T23:56:51.839Z,14.89
2022-09-28T23:59:21.472Z,14.82
